createdAt,value
2022-12-16T00:00:04.491Z,-9.40
2022-12-16T00:02:31.371Z,-9.50
2022-12-16T00:04:58.141Z,-9.40
2022-12-16T00:07:24.696Z,-9.40
2022-12-16T00:09:51.374Z,-9.40
2022-12-16T00:12:18.280Z,-9.40
2022-12-16T00:14:44.870Z,-9.50
2022-12-16T00:17:11.449Z,-9.50
2022-12-16T00:19:38.271Z,-9.60
2022-12-16T00:22:04.814Z,-9.60
2022-12-16T00:24:31.478Z,-9.60
2022-12-16T00:26:58.138Z,-9.60
2022-12-16T00:29:24.695Z,-9.60
2022-12-16T00:31:51.317Z,-9.60
2022-12-16T00:34:18.019Z,-9.70
2022-12-16T00:36:44.599Z,-9.80
2022-12-16T00:39:11.271Z,-9.80
2022-12-16T00:41:37.858Z,-9.80
2022-12-16T00:44:04.476Z,-9.70
2022-12-16T00:46:31.022Z,-9.80
2022-12-16T00:48:57.578Z,-9.70
2022-12-16T00:51:24.136Z,-9.70
2022-12-16T00:53:50.827Z,-9.80
2022-12-16T00:56:20.389Z,-9.80
2022-12-16T00:58:47.028Z,-9.90
2022-12-16T01:01:13.770Z,-9.90
2022-12-16T01:03:40.916Z,-9.90
2022-12-16T01:06:17.228Z,-9.90
2022-12-16T01:08:48.743Z,-9.90
2022-12-16T01:11:17.000Z,-9.90
2022-12-16T01:13:43.620Z,-9.90
2022-12-16T01:16:10.248Z,-9.80
2022-12-16T01:18:36.893Z,-9.80
2022-12-16T01:21:04.422Z,-9.80
2022-12-16T01:23:31.203Z,-9.80
2022-12-16T01:25:58.369Z,-9.80
2022-12-16T01:28:25.282Z,-9.90
2022-12-16T01:31:01.432Z,-9.90
2022-12-16T01:33:29.471Z,-9.90
2022-12-16T01:36:00.019Z,-9.90
2022-12-16T01:38:26.673Z,-9.90
2022-12-16T01:40:55.037Z,-9.90
2022-12-16T01:43:23.367Z,-9.80
2022-12-16T01:45:49.962Z,-9.50
2022-12-16T01:48:17.168Z,-9.40
2022-12-16T01:50:43.723Z,-9.30
2022-12-16T01:53:10.304Z,-9.30
2022-12-16T01:55:41.295Z,-9.40
2022-12-16T01:58:12.597Z,-9.40
2022-12-16T02:00:39.168Z,-9.40
2022-12-16T02:03:06.225Z,-9.20
2022-12-16T02:05:36.495Z,-9.20
2022-12-16T02:08:06.160Z,-9.20
2022-12-16T02:10:32.700Z,-9.20
2022-12-16T02:13:02.145Z,-9.30
2022-12-16T02:15:40.527Z,-9.30
2022-12-16T02:18:11.170Z,-9.30
2022-12-16T02:20:44.767Z,-9.10
2022-12-16T02:23:23.586Z,-9.00
2022-12-16T02:25:58.108Z,-8.90
2022-12-16T02:28:34.303Z,-8.80
2022-12-16T02:31:07.085Z,-8.70
2022-12-16T02:33:34.084Z,-8.70
2022-12-16T02:36:16.400Z,-8.70
2022-12-16T02:38:50.178Z,-8.70
2022-12-16T02:41:34.170Z,-8.70
2022-12-16T02:44:02.386Z,-8.60
2022-12-16T02:46:30.060Z,-8.60
2022-12-16T02:48:56.831Z,-8.60
2022-12-16T02:51:24.081Z,-8.50
2022-12-16T02:53:50.819Z,-8.40
2022-12-16T02:56:18.682Z,-8.40
2022-12-16T02:58:45.183Z,-8.40
2022-12-16T03:01:30.344Z,-8.40
2022-12-16T03:03:59.900Z,-8.40
2022-12-16T03:06:26.610Z,-8.40
2022-12-16T03:08:54.058Z,-8.50
2022-12-16T03:11:20.617Z,-8.50
2022-12-16T03:13:48.738Z,-8.50
2022-12-16T03:16:15.969Z,-8.50
2022-12-16T03:18:43.250Z,-8.50
2022-12-16T03:21:10.268Z,-8.60
2022-12-16T03:23:39.766Z,-8.60
2022-12-16T03:26:07.476Z,-8.70
2022-12-16T03:28:37.134Z,-8.70
2022-12-16T03:31:19.055Z,-8.70
2022-12-16T03:33:48.225Z,-8.70
2022-12-16T03:36:16.455Z,-8.80
2022-12-16T03:38:43.179Z,-8.80
2022-12-16T03:41:09.731Z,-8.80
2022-12-16T03:43:36.617Z,-8.80
2022-12-16T03:46:04.318Z,-8.90
2022-12-16T03:48:31.061Z,-9.00
2022-12-16T03:50:57.661Z,-9.00
2022-12-16T03:53:26.371Z,-8.90
2022-12-16T03:55:53.385Z,-8.90
2022-12-16T03:58:20.552Z,-8.90
2022-12-16T04:00:47.396Z,-8.80
2022-12-16T04:03:14.154Z,-8.80
2022-12-16T04:05:40.823Z,-8.90
2022-12-16T04:08:07.420Z,-8.90
2022-12-16T04:10:52.713Z,-9.00
2022-12-16T04:13:38.183Z,-9.10
2022-12-16T04:16:23.633Z,-9.10
2022-12-16T04:19:09.023Z,-9.10
2022-12-16T04:21:54.403Z,-9.10
2022-12-16T04:24:28.142Z,-9.10
2022-12-16T04:27:17.065Z,-9.20
2022-12-16T04:30:02.389Z,-9.30
2022-12-16T04:32:49.122Z,-9.50
2022-12-16T04:35:34.223Z,-9.60
2022-12-16T04:38:19.575Z,-9.60
2022-12-16T04:41:04.941Z,-9.70
2022-12-16T04:43:50.361Z,-9.70
2022-12-16T04:46:38.183Z,-9.80
2022-12-16T04:49:23.485Z,-9.80
2022-12-16T04:52:08.907Z,-9.80
2022-12-16T04:54:54.191Z,-9.80
2022-12-16T04:57:39.427Z,-9.90
2022-12-16T05:00:24.726Z,-9.90
2022-12-16T05:03:10.383Z,-9.90
2022-12-16T05:05:55.871Z,-10.00
2022-12-16T05:08:41.080Z,-10.00
2022-12-16T05:11:26.480Z,-10.00
2022-12-16T05:14:11.868Z,-10.00
2022-12-16T05:16:57.369Z,-10.10
2022-12-16T05:19:42.905Z,-10.10
2022-12-16T05:22:28.146Z,-10.10
2022-12-16T05:25:13.534Z,-10.20
2022-12-16T05:27:58.839Z,-10.10
2022-12-16T05:30:44.203Z,-10.20
2022-12-16T05:33:29.748Z,-10.20
2022-12-16T05:36:15.229Z,-10.20
2022-12-16T05:39:00.631Z,-10.10
2022-12-16T05:41:46.151Z,-9.90
2022-12-16T05:44:31.524Z,-9.80
2022-12-16T05:47:16.944Z,-9.70
2022-12-16T05:50:02.284Z,-9.90
2022-12-16T05:52:47.666Z,-10.00
2022-12-16T05:55:34.235Z,-10.10
2022-12-16T05:58:19.798Z,-10.10
2022-12-16T06:01:05.562Z,-10.10
2022-12-16T06:03:50.986Z,-10.10
2022-12-16T06:06:36.543Z,-10.10
2022-12-16T06:09:21.870Z,-10.10
2022-12-16T06:12:07.259Z,-10.20
2022-12-16T06:14:52.631Z,-10.20
2022-12-16T06:17:38.282Z,-10.30
2022-12-16T06:20:23.794Z,-10.30
2022-12-16T06:23:14.248Z,-10.30
2022-12-16T06:26:00.108Z,-10.40
2022-12-16T06:28:46.198Z,-10.40
2022-12-16T06:31:32.073Z,-10.40
2022-12-16T06:34:17.491Z,-10.40
2022-12-16T06:37:02.962Z,-10.40
2022-12-16T06:39:52.740Z,-10.40
2022-12-16T06:42:38.595Z,-10.40
2022-12-16T06:45:23.988Z,-10.50
2022-12-16T06:48:10.609Z,-10.60
2022-12-16T06:50:56.068Z,-10.50
2022-12-16T06:53:41.400Z,-10.50
2022-12-16T06:56:27.657Z,-10.50
2022-12-16T06:59:13.086Z,-10.50
2022-12-16T07:01:58.901Z,-10.50
2022-12-16T07:04:45.407Z,-10.50
2022-12-16T07:07:30.957Z,-10.50
2022-12-16T07:10:16.381Z,-10.40
2022-12-16T07:13:01.987Z,-10.50
2022-12-16T07:15:47.369Z,-10.50
2022-12-16T07:18:33.826Z,-10.50
2022-12-16T07:21:19.420Z,-10.40
2022-12-16T07:24:04.768Z,-10.40
2022-12-16T07:26:50.318Z,-10.40
2022-12-16T07:29:35.916Z,-10.50
2022-12-16T07:32:21.253Z,-10.50
2022-12-16T07:35:06.871Z,-9.60
2022-12-16T07:37:52.255Z,-6.80
2022-12-16T07:40:37.699Z,-7.10
2022-12-16T07:43:23.133Z,-8.10
2022-12-16T07:46:08.598Z,-8.80
2022-12-16T07:48:54.191Z,-9.30
2022-12-16T07:51:41.270Z,-9.50
2022-12-16T07:54:26.638Z,-9.70
2022-12-16T07:57:13.783Z,-9.60
2022-12-16T07:59:59.029Z,-9.50
2022-12-16T08:02:44.693Z,-9.30
2022-12-16T08:05:30.202Z,-9.20
2022-12-16T08:08:15.849Z,-9.20
2022-12-16T08:11:01.298Z,-9.10
2022-12-16T08:13:46.296Z,-9.00
2022-12-16T08:16:31.827Z,-9.00
2022-12-16T08:19:17.593Z,-9.00
2022-12-16T08:22:03.270Z,-8.90
2022-12-16T08:24:53.366Z,-8.80
2022-12-16T08:27:39.356Z,-8.70
2022-12-16T08:30:24.818Z,-8.60
2022-12-16T08:33:18.263Z,-8.60
2022-12-16T08:36:04.518Z,-8.50
2022-12-16T08:38:50.444Z,-8.50
2022-12-16T08:41:36.433Z,-8.40
2022-12-16T08:44:22.125Z,-8.40
2022-12-16T08:47:07.534Z,-8.40
2022-12-16T08:49:56.116Z,-8.30
2022-12-16T08:52:44.995Z,-8.20
2022-12-16T08:55:30.465Z,-8.20
2022-12-16T08:58:15.856Z,-8.20
2022-12-16T09:01:06.773Z,-8.10
2022-12-16T09:03:53.046Z,-8.10
2022-12-16T09:06:41.004Z,-7.90
2022-12-16T09:09:27.243Z,-7.90
2022-12-16T09:12:13.037Z,-7.80
2022-12-16T09:14:58.487Z,-7.70
2022-12-16T09:17:44.543Z,-7.60
2022-12-16T09:20:29.868Z,-7.50
2022-12-16T09:23:18.319Z,-7.40
2022-12-16T09:26:03.770Z,-7.30
2022-12-16T09:28:52.490Z,-7.20
2022-12-16T09:31:38.057Z,-7.10
2022-12-16T09:34:23.505Z,-7.00
2022-12-16T09:37:08.669Z,-7.00
2022-12-16T09:39:54.037Z,-6.80
2022-12-16T09:42:49.617Z,-6.80
2022-12-16T09:45:41.218Z,-6.70
2022-12-16T09:48:45.669Z,-6.50
2022-12-16T09:51:31.167Z,-6.30
2022-12-16T09:54:16.515Z,-6.30
2022-12-16T09:57:01.963Z,-6.20
2022-12-16T09:59:48.251Z,-6.10
2022-12-16T10:02:34.395Z,-6.00
2022-12-16T10:05:20.100Z,-5.80
2022-12-16T10:08:07.152Z,-5.70
2022-12-16T10:11:06.099Z,-5.60
2022-12-16T10:13:54.125Z,-5.50
2022-12-16T10:16:43.984Z,-5.50
2022-12-16T10:19:29.347Z,-5.40
2022-12-16T10:22:30.182Z,-5.40
2022-12-16T10:25:24.817Z,-5.20
2022-12-16T10:28:10.691Z,-5.00
2022-12-16T10:30:56.792Z,-4.90
2022-12-16T10:33:43.913Z,-4.90
2022-12-16T10:36:36.609Z,-4.90
2022-12-16T10:39:23.956Z,-4.80
2022-12-16T10:42:10.187Z,-4.80
2022-12-16T10:45:07.788Z,-4.70
2022-12-16T10:47:54.711Z,-4.60
2022-12-16T10:50:40.407Z,-4.40
2022-12-16T10:53:31.409Z,-4.20
2022-12-16T10:56:23.053Z,-4.10
2022-12-16T10:59:12.672Z,-3.90
2022-12-16T11:01:58.101Z,-3.70
2022-12-16T11:04:50.318Z,-3.60
2022-12-16T11:07:54.687Z,-3.60
2022-12-16T11:10:42.968Z,-3.40
2022-12-16T11:13:43.680Z,-3.30
2022-12-16T11:16:29.199Z,-3.20
2022-12-16T11:19:14.553Z,-3.20
2022-12-16T11:21:59.881Z,-3.10
2022-12-16T11:24:45.264Z,-3.00
2022-12-16T11:27:30.768Z,-2.90
2022-12-16T11:30:16.056Z,-2.80
2022-12-16T11:33:02.496Z,-2.70
2022-12-16T11:35:48.525Z,-2.50
2022-12-16T11:38:41.131Z,-2.40
2022-12-16T11:41:26.609Z,-2.20
2022-12-16T11:44:12.042Z,-2.00
2022-12-16T11:46:57.666Z,-1.70
2022-12-16T11:49:47.813Z,-1.60
2022-12-16T11:52:37.501Z,-1.60
2022-12-16T11:55:48.159Z,-1.60
2022-12-16T11:58:40.202Z,-1.50
2022-12-16T12:01:33.336Z,-1.30
2022-12-16T12:04:18.835Z,-1.30
2022-12-16T12:07:25.622Z,-1.30
2022-12-16T12:10:13.305Z,-1.20
2022-12-16T12:13:05.349Z,-1.20
2022-12-16T12:15:57.727Z,-1.10
2022-12-16T12:18:43.067Z,-1.00
2022-12-16T12:21:35.718Z,-0.90
2022-12-16T12:24:27.335Z,-0.80
2022-12-16T12:27:18.771Z,-0.70
2022-12-16T12:30:10.435Z,-0.60
2022-12-16T12:33:06.740Z,-0.70
2022-12-16T12:36:08.982Z,-0.80
2022-12-16T12:38:57.079Z,-0.90
2022-12-16T12:41:56.538Z,-0.90
2022-12-16T12:44:49.944Z,-0.90
2022-12-16T12:47:35.360Z,-0.90
2022-12-16T12:50:35.759Z,-0.90
2022-12-16T12:53:24.640Z,-0.90
2022-12-16T12:56:10.025Z,-1.00
2022-12-16T12:59:02.721Z,-1.10
2022-12-16T13:01:50.782Z,-1.00
2022-12-16T13:04:39.998Z,-1.00
2022-12-16T13:07:25.318Z,-0.80
2022-12-16T13:10:29.649Z,-0.90
2022-12-16T13:13:38.212Z,-0.80
2022-12-16T13:16:23.952Z,-0.70
2022-12-16T13:19:28.852Z,-0.70
2022-12-16T13:22:14.285Z,-0.70
2022-12-16T13:25:02.347Z,-0.70
2022-12-16T13:27:48.003Z,-0.70
2022-12-16T13:30:37.958Z,-0.80
2022-12-16T13:33:42.436Z,-1.00
2022-12-16T13:36:27.930Z,-1.20
2022-12-16T13:39:13.928Z,-1.40
2022-12-16T13:41:59.562Z,-1.50
2022-12-16T13:45:00.519Z,-1.70
2022-12-16T13:47:52.788Z,-1.70
2022-12-16T13:50:56.900Z,-1.60
2022-12-16T13:53:43.093Z,-1.60
2022-12-16T13:56:28.276Z,-1.60
2022-12-16T13:59:16.624Z,-1.60
2022-12-16T14:02:03.944Z,-1.60
2022-12-16T14:04:53.060Z,-1.50
2022-12-16T14:07:39.348Z,-1.60
2022-12-16T14:10:24.747Z,-1.70
2022-12-16T14:13:16.441Z,-1.80
2022-12-16T14:16:07.224Z,-1.90
2022-12-16T14:18:56.248Z,-2.00
2022-12-16T14:21:44.113Z,-2.20
2022-12-16T14:24:31.104Z,-2.30
2022-12-16T14:27:16.594Z,-2.40
2022-12-16T14:30:01.880Z,-2.40
2022-12-16T14:32:48.280Z,-2.30
2022-12-16T14:35:37.626Z,-2.40
2022-12-16T14:38:41.819Z,-2.50
2022-12-16T14:41:33.723Z,-2.50
2022-12-16T14:44:19.442Z,-2.60
2022-12-16T14:47:07.437Z,-2.70
2022-12-16T14:49:52.861Z,-2.90
2022-12-16T14:52:44.582Z,-3.00
2022-12-16T14:55:31.141Z,-3.10
2022-12-16T14:58:20.367Z,-3.20
2022-12-16T15:01:08.524Z,-3.20
2022-12-16T15:03:58.676Z,-3.20
2022-12-16T15:06:59.750Z,-3.20
2022-12-16T15:09:49.338Z,-3.30
2022-12-16T15:12:34.800Z,-3.30
2022-12-16T15:15:20.118Z,-3.30
2022-12-16T15:18:07.049Z,-3.40
2022-12-16T15:20:52.719Z,-3.40
2022-12-16T15:23:39.531Z,-3.40
2022-12-16T15:26:25.020Z,-3.50
2022-12-16T15:29:10.428Z,-3.50
2022-12-16T15:32:02.717Z,-3.50
2022-12-16T15:35:07.077Z,-3.50
2022-12-16T15:38:00.591Z,-3.60
2022-12-16T15:40:49.764Z,-3.70
2022-12-16T15:43:41.337Z,-3.70
2022-12-16T15:46:34.062Z,-3.70
2022-12-16T15:49:19.479Z,-3.70
2022-12-16T15:52:05.231Z,-3.80
2022-12-16T15:54:50.589Z,-3.80
2022-12-16T15:57:51.763Z,-3.80
2022-12-16T16:00:41.082Z,-3.80
2022-12-16T16:03:45.264Z,-3.80
2022-12-16T16:06:43.290Z,-3.80
2022-12-16T16:09:31.754Z,-3.80
2022-12-16T16:12:17.201Z,-3.80
2022-12-16T16:15:02.666Z,-3.90
2022-12-16T16:17:48.035Z,-3.90
2022-12-16T16:20:34.109Z,-3.90
2022-12-16T16:23:19.472Z,-4.00
2022-12-16T16:26:05.340Z,-4.10
2022-12-16T16:28:50.904Z,-4.00
2022-12-16T16:31:36.427Z,-4.10
2022-12-16T16:34:21.813Z,-4.10
2022-12-16T16:37:08.373Z,-4.20
2022-12-16T16:39:53.832Z,-4.20
2022-12-16T16:42:41.529Z,-4.10
2022-12-16T16:45:27.131Z,-4.00
2022-12-16T16:48:31.794Z,-3.90
2022-12-16T16:51:17.784Z,-3.90
2022-12-16T16:54:03.029Z,-3.80
2022-12-16T16:56:49.423Z,-3.90
2022-12-16T16:59:35.032Z,-3.80
2022-12-16T17:02:20.617Z,-3.80
2022-12-16T17:05:06.341Z,-3.80
2022-12-16T17:07:53.975Z,-3.80
2022-12-16T17:10:39.542Z,-3.80
2022-12-16T17:13:25.059Z,-3.80
2022-12-16T17:16:10.609Z,-3.90
2022-12-16T17:18:56.185Z,-3.90
2022-12-16T17:21:41.578Z,-4.00
2022-12-16T17:24:27.344Z,-4.00
2022-12-16T17:27:12.787Z,-4.10
2022-12-16T17:29:58.332Z,-4.20
2022-12-16T17:32:43.781Z,-4.30
2022-12-16T17:35:32.246Z,-4.30
2022-12-16T17:38:17.661Z,-4.20
2022-12-16T17:41:02.625Z,-4.20
2022-12-16T17:43:47.839Z,-4.10
2022-12-16T17:46:33.427Z,-4.10
2022-12-16T17:49:18.942Z,-4.10
2022-12-16T17:52:04.460Z,-4.10
2022-12-16T17:54:49.959Z,-4.10
2022-12-16T17:57:35.270Z,-4.10
2022-12-16T18:00:20.531Z,-4.20
2022-12-16T18:03:06.175Z,-4.20
2022-12-16T18:05:51.664Z,-4.20
2022-12-16T18:08:37.068Z,-4.20
2022-12-16T18:11:22.347Z,-4.30
2022-12-16T18:14:07.602Z,-4.30
2022-12-16T18:16:52.932Z,-4.40
2022-12-16T18:19:38.325Z,-4.50
2022-12-16T18:22:23.596Z,-4.50
2022-12-16T18:25:08.840Z,-4.60
2022-12-16T18:27:54.792Z,-4.70
2022-12-16T18:30:39.948Z,-4.70
2022-12-16T18:33:25.570Z,-4.70
2022-12-16T18:36:10.949Z,-4.70
2022-12-16T18:38:56.346Z,-4.70
2022-12-16T18:41:41.680Z,-4.60
2022-12-16T18:44:28.426Z,-4.60
2022-12-16T18:47:13.855Z,-4.60
2022-12-16T18:49:59.227Z,-4.60
2022-12-16T18:52:44.793Z,-4.60
2022-12-16T18:55:30.247Z,-4.60
2022-12-16T18:58:42.731Z,-4.60
2022-12-16T19:01:21.766Z,-4.70
2022-12-16T19:04:07.237Z,-4.80
2022-12-16T19:06:52.483Z,-4.80
2022-12-16T19:09:37.766Z,-4.90
2022-12-16T19:12:23.143Z,-4.90
2022-12-16T19:15:08.658Z,-4.90
2022-12-16T19:17:54.154Z,-5.00
2022-12-16T19:20:40.371Z,-5.10
2022-12-16T19:23:25.906Z,-5.20
2022-12-16T19:26:17.638Z,-5.30
2022-12-16T19:29:03.088Z,-5.30
2022-12-16T19:31:48.689Z,-5.20
2022-12-16T19:34:37.514Z,-5.20
2022-12-16T19:37:23.114Z,-5.30
2022-12-16T19:40:08.662Z,-5.30
2022-12-16T19:42:55.882Z,-5.40
2022-12-16T19:45:41.588Z,-5.50
2022-12-16T19:48:27.123Z,-5.60
2022-12-16T19:51:16.323Z,-5.60
2022-12-16T19:54:02.594Z,-5.60
2022-12-16T19:56:48.349Z,-5.70
2022-12-16T19:59:33.767Z,-5.70
2022-12-16T20:02:19.563Z,-5.70
2022-12-16T20:05:05.119Z,-5.60
2022-12-16T20:07:50.333Z,-5.60
2022-12-16T20:10:35.566Z,-5.80
2022-12-16T20:16:31.293Z,-5.80
2022-12-16T20:19:16.667Z,-5.80
2022-12-16T20:22:06.840Z,-5.70
2022-12-16T20:24:56.407Z,-5.70
2022-12-16T20:27:42.080Z,-5.70
2022-12-16T20:30:27.345Z,-5.70
2022-12-16T20:33:13.810Z,-5.70
2022-12-16T20:35:59.118Z,-5.70
2022-12-16T20:38:44.566Z,-5.60
2022-12-16T20:41:32.038Z,-5.60
2022-12-16T20:44:17.385Z,-5.50
2022-12-16T20:47:02.823Z,-5.50
2022-12-16T20:49:48.451Z,-5.60
2022-12-16T20:52:33.987Z,-5.60
2022-12-16T20:55:19.614Z,-5.60
2022-12-16T20:58:04.939Z,-5.60
2022-12-16T21:00:50.306Z,-5.60
2022-12-16T21:03:35.797Z,-5.60
2022-12-16T21:06:22.135Z,-5.60
2022-12-16T21:09:07.732Z,-5.60
2022-12-16T21:11:53.055Z,-5.70
2022-12-16T21:14:41.764Z,-5.60
2022-12-16T21:17:27.242Z,-5.60
2022-12-16T21:20:12.520Z,-5.60
2022-12-16T21:22:58.032Z,-5.50
2022-12-16T21:25:43.144Z,-5.50
2022-12-16T21:28:29.692Z,-5.50
2022-12-16T21:31:16.502Z,-5.50
2022-12-16T21:34:01.808Z,-5.50
2022-12-16T21:36:47.038Z,-5.50
2022-12-16T21:39:32.393Z,-5.50
2022-12-16T21:42:17.679Z,-5.50
2022-12-16T21:45:03.053Z,-5.50
2022-12-16T21:47:48.728Z,-5.50
2022-12-16T21:50:34.467Z,-5.50
2022-12-16T21:53:20.828Z,-5.60
2022-12-16T21:56:12.414Z,-5.50
2022-12-16T21:58:57.574Z,-5.60
2022-12-16T22:01:43.087Z,-5.60
2022-12-16T22:04:28.388Z,-5.70
2022-12-16T22:07:13.740Z,-5.70
2022-12-16T22:09:59.503Z,-5.70
2022-12-16T22:12:44.776Z,-5.70
2022-12-16T22:15:30.192Z,-5.80
2022-12-16T22:18:15.830Z,-5.80
2022-12-16T22:21:02.910Z,-5.70
2022-12-16T22:23:48.387Z,-5.70
2022-12-16T22:26:33.732Z,-5.70
2022-12-16T22:29:19.203Z,-5.80
2022-12-16T22:32:04.660Z,-5.80
2022-12-16T22:34:50.136Z,-5.80
2022-12-16T22:37:35.454Z,-5.70
2022-12-16T22:40:20.800Z,-5.60
2022-12-16T22:43:07.046Z,-5.60
2022-12-16T22:45:52.500Z,-5.50
2022-12-16T22:48:38.063Z,-5.50
2022-12-16T22:51:29.459Z,-5.50
2022-12-16T22:54:14.834Z,-5.50
2022-12-16T22:57:00.388Z,-5.50
2022-12-16T22:59:47.592Z,-5.50
2022-12-16T23:02:33.537Z,-5.40
2022-12-16T23:05:23.631Z,-5.40
2022-12-16T23:08:12.616Z,-5.40
2022-12-16T23:10:58.064Z,-5.50
2022-12-16T23:13:44.156Z,-5.50
2022-12-16T23:16:30.695Z,-5.60
2022-12-16T23:19:16.195Z,-5.60
2022-12-16T23:22:03.805Z,-5.60
2022-12-16T23:24:49.407Z,-5.60
2022-12-16T23:27:34.689Z,-5.60
2022-12-16T23:30:20.316Z,-5.60
2022-12-16T23:32:30.068Z,-5.80
2022-12-16T23:33:06.030Z,-5.60
2022-12-16T23:35:51.387Z,-5.60
2022-12-16T23:38:37.341Z,-5.60
2022-12-16T23:41:22.650Z,-5.60
2022-12-16T23:44:07.939Z,-5.70
2022-12-16T23:46:53.497Z,-5.60
2022-12-16T23:49:41.000Z,-5.60
2022-12-16T23:52:40.021Z,-5.60
2022-12-16T23:55:25.290Z,-5.60
2022-12-16T23:58:17.304Z,-5.60
